Flight Track Log - Related Links

Times and Time Zones

All times are in EST time to prevent confusion due to time zone crossing. See the N479B flight status page for this flight to view local times or setup timezone preferences in your user account.

Time Position Orientation Groundspeed Altitude Reporting Facility
EST Latitude Longitude Course Direction KTS MPH feet Rate Location/Type
Thu 03:45:38 PM 32.0097 -96.3075 76° East 222 255 3,400  Level Houston Center
Thu 03:46:40 PM 32.0261 -96.2322 76° East 203 234 5,500 1,935 Climbing Houston Center
Thu 03:47:42 PM 32.0233 -96.1625 93° East 204 235 7,400 1,714 Climbing Houston Center
Thu 03:48:46 PM 32.0308 -96.0894 83° East 208 239 9,100 1,571 Climbing Fort Worth Center
Thu 03:49:48 PM 32.0369 -96.0186 84° East 217 250 10,700 1,597 Climbing Fort Worth Center
Thu 03:50:50 PM 32.0450 -95.9450 83° East 226 260 12,400 1,548 Climbing Fort Worth Center
Thu 03:51:52 PM 32.0514 -95.8644 85° East 243 280 13,900 1,548 Climbing Fort Worth Center
Thu 03:52:54 PM 32.0592 -95.7828 84° East 249 287 15,600 1,452 Climbing Fort Worth Center
Thu 03:53:56 PM 32.0658 -95.7017 84° East 251 289 16,900 1,403 Climbing Fort Worth Center
Thu 03:54:58 PM 32.0736 -95.6103 84° East 250 288 18,500 1,403 Climbing Fort Worth Center
Thu 03:56:00 PM 32.0806 -95.5281 84° East 251 289 19,800 1,065 Climbing Fort Worth Center
Thu 03:57:02 PM 32.0872 -95.4436 85° East 257 296 20,700 1,016 Climbing Fort Worth Center
Thu 03:58:04 PM 32.0975 -95.3361 84° East 272 313 21,900 1,048 Climbing Fort Worth Center
Thu 03:59:08 PM 32.1050 -95.2436 85° East 282 325 22,900 1,000 Climbing Fort Worth Center
Thu 04:00:10 PM 32.1131 -95.1517 84° East 282 325 24,000 1,016 Climbing Fort Worth Center
Thu 04:01:12 PM 32.1203 -95.0594 85° East 281 323 25,000 919 Climbing Fort Worth Center
Thu 04:02:14 PM 32.1278 -94.9683 84° East 279 321 25,900 823 Climbing Fort Worth Center
Thu 04:03:16 PM 32.1367 -94.8744 84° East 285 328 26,700 871 Climbing Fort Worth Center
Thu 04:04:18 PM 32.1422 -94.7614 87° East 287 330 27,700 871 Climbing Fort Worth Center
Thu 04:05:20 PM 32.1469 -94.6653 87° East 291 335 28,500 629 Climbing Fort Worth Center
Thu 04:06:22 PM 32.1525 -94.5681 86° East 296 341 29,000 240 Climbing Fort Worth Center
Thu 04:07:25 PM 32.1581 -94.4636 86° East 313 360 29,000  Level Fort Worth Center
Thu 04:08:27 PM 32.1647 -94.3489 86° East 342 394 29,000  Level Fort Worth Center
Thu 04:09:29 PM 32.1706 -94.2333 87° East 351 404 29,000  Level Fort Worth Center
Thu 04:10:31 PM 32.1772 -94.0922 87° East 359 413 29,000  Level Fort Worth Center
Thu 04:11:33 PM 32.1828 -93.9758 87° East 355 409 29,000  Level Fort Worth Center
Thu 04:12:35 PM 32.1883 -93.8544 87° East 358 412 29,000  Level Fort Worth Center
Thu 04:13:37 PM 32.1928 -93.7386 87° East 357 411 29,000  Level Fort Worth Center
Thu 04:14:39 PM 32.1989 -93.6225 86° East 356 410 29,000  Level Fort Worth Center
Thu 04:15:41 PM 32.2033 -93.5061 87° East 357 411 29,000  Level Fort Worth Center
Thu 04:16:43 PM 32.2086 -93.3900 87° East 356 410 29,000  Level Fort Worth Center
Thu 04:17:45 PM 32.2136 -93.2728 87° East 359 413 29,000  Level Fort Worth Center
Thu 04:18:47 PM 32.2200 -93.1308 87° East 362 417 29,000  Level Fort Worth Center
Thu 04:19:49 PM 32.2256 -93.0239 86° East 360 414 29,000  Level Fort Worth Center
Thu 04:20:51 PM 32.2317 -92.8825 87° East 359 413 29,000  Level Fort Worth Center
Thu 04:21:54 PM 32.2353 -92.7625 88° East 362 417 29,000  Level Fort Worth Center
Thu 04:22:56 PM 32.2408 -92.6461 87° East 358 412 29,000  Level Fort Worth Center
Thu 04:23:57 PM 32.2428 -92.5344 89° East 361 415 29,000  Level Houston Center
Thu 04:24:59 PM 32.2472 -92.4183 87° East 357 411 29,000 -145 Level Houston Center
Thu 04:26:01 PM 32.2519 -92.2767 88° East 359 413 28,700 -823 Descending Houston Center
Thu 04:27:03 PM 32.2569 -92.1525 87° East 375 432 27,300 -1,474 Descending Houston Center
Thu 04:28:52 PM 32.2644 -91.9158 88° East 388 447 24,500 -1,600 Descending Memphis Center
Thu 04:29:33 PM 32.2672 -91.8386 88° East 382 440 23,300 -1,748 Descending Houston Center
Thu 04:30:35 PM 32.2711 -91.7167 88° East 374 430 21,500 -1,694 Descending Houston Center
Thu 04:31:37 PM 32.2756 -91.5969 87° East 367 422 19,800 -1,742 Descending Houston Center
Thu 04:32:39 PM 32.3139 -91.4928 66° East 348 400 17,900 -1,742 Descending Houston Center
Thu 04:33:41 PM 32.3517 -91.3911 66° East 342 394 16,200 -1,790 Descending Houston Center
Thu 04:34:43 PM 32.3967 -91.2697 66° East 336 387 14,200 -1,740 Descending Houston Center
Thu 04:35:21 PM 32.4178 -91.2086 68° East 332 382 13,300 -1,440 Descending Fort Worth Center
Thu 04:36:23 PM 32.4522 -91.1161 66° East 317 365 11,800 -1,514 Descending Fort Worth Center
Thu 04:37:08 PM 32.4761 -91.0500 67° East 314 361 10,600 -1,514 Descending Memphis Center
Thu 04:38:10 PM 32.4689 -90.9503 95° East 323 372 9,100 -1,452 Descending Memphis Center
Thu 04:39:12 PM 32.4481 -90.8325 102° East 314 361 7,600 -1,210 Descending Memphis Center
Thu 04:40:14 PM 32.4317 -90.7394 102° East 303 349 6,600 -960 Descending Memphis Center
Thu 04:41:17 PM 32.3989 -90.6572 115° Southeast 299 344 5,600 -960 Descending Memphis Center
Thu 04:42:19 PM 32.3536 -90.5781 124° Southeast 294 338 4,600 -774 Descending Memphis Center
Thu 04:43:21 PM 32.3122 -90.5006 122° Southeast 289 333 4,000 -290 Descending Memphis Center
Thu 04:44:23 PM 32.2672 -90.4147 122° Southeast 276 318 4,000 -48 Level Memphis Center
Thu 04:45:25 PM 32.2317 -90.3483 122° Southeast 262 302 3,900  Descending Memphis Center
Thu 04:46:27 PM 32.2125 -90.2769 108° East 258 297 4,000 48 Climbing Memphis Center
Thu 04:47:29 PM 32.2081 -90.2064 94° East 232 267 4,000 -290 Level Memphis Center
Thu 04:48:31 PM 32.2056 -90.1378 92° East 221 254 3,400 -823 Descending Memphis Center
Thu 04:49:33 PM 32.2342 -90.0772 61° Northeast 190 219 2,300 -1,065 Descending Memphis Center
Thu 04:50:35 PM 32.2669 -90.0575 27° Northeast 157 181 1,200 -677 Descending Memphis Center
Thu 04:51:37 PM 32.2950 -90.0736 334° Northwest 140 161 900 -290 Descending Memphis Center
Thu 04:53:00 PM 32.3000 -90.0667 48° Northeast  Level FlightAware Approximate

Login

Don't have an account? Register now (free) for customized features, flight alerts, and more!